Time;durP1;ratioP1;P1;durP2;ratioP2;P2;SDS_P1;SDS_P2;PMS_P1;PMS_P2;Temp;Humidity;BMP_temperature;BMP_pressure;BME280_temperature;BME280_humidity;BME280_pressure;Samples;Min_cycle;Max_cycle;Signal;HPM_P1;HPM_P2
2021/09/28 00:02:16;;;;;;;14.52;10.75;;;18.70;68.50;;;;;;5052774;28;20394;-65
2021/09/28 00:04:42;;;;;;;23.45;10.43;;;18.70;68.20;;;;;;5053285;28;20035;-65
2021/09/28 00:07:08;;;;;;;14.60;11.43;;;18.70;68.00;;;;;;5053299;28;20452;-65
2021/09/28 00:09:33;;;;;;;14.77;11.65;;;18.70;68.10;;;;;;5052814;28;20104;-65
2021/09/28 00:11:59;;;;;;;15.68;11.20;;;18.70;67.90;;;;;;5052089;28;20035;-65
2021/09/28 00:14:25;;;;;;;13.45;10.52;;;18.70;67.80;;;;;;5051711;28;20037;-65
2021/09/28 00:16:51;;;;;;;16.13;12.23;;;18.70;67.80;;;;;;5052811;28;20095;-66
2021/09/28 00:19:17;;;;;;;16.55;11.85;;;18.60;68.00;;;;;;5053031;28;20032;-66
2021/09/28 00:21:43;;;;;;;11.93;10.05;;;18.60;68.00;;;;;;5052789;28;20057;-66
2021/09/28 00:24:10;;;;;;;12.40;9.75;;;18.60;67.90;;;;;;5052770;28;20025;-66
2021/09/28 00:26:36;;;;;;;14.77;11.02;;;18.60;67.70;;;;;;5052849;28;20029;-65
2021/09/28 00:29:03;;;;;;;13.15;10.02;;;18.50;67.70;;;;;;5052535;28;20594;-66
2021/09/28 00:31:29;;;;;;;11.68;9.40;;;18.50;67.70;;;;;;5053109;28;20036;-65
2021/09/28 00:33:55;;;;;;;12.13;9.80;;;18.40;67.50;;;;;;5052660;28;20478;-65
2021/09/28 00:36:23;;;;;;;12.20;10.13;;;18.50;67.60;;;;;;5051208;28;20032;-65
2021/09/28 00:38:50;;;;;;;13.07;10.10;;;18.40;67.50;;;;;;5052549;28;20017;-65
2021/09/28 00:41:16;;;;;;;17.25;10.30;;;18.30;67.60;;;;;;5052291;28;20031;-66
2021/09/28 00:43:53;;;;;;;18.08;11.80;;;18.40;67.70;;;;;;5052257;28;20033;-64
2021/09/28 00:46:20;;;;;;;14.15;10.68;;;18.30;68.10;;;;;;5052541;28;20136;-64
2021/09/28 00:48:46;;;;;;;12.60;10.35;;;18.30;68.10;;;;;;5071511;28;20507;-64
2021/09/28 00:51:13;;;;;;;13.77;10.60;;;18.30;68.10;;;;;;5068998;28;20569;-65
2021/09/28 00:53:40;;;;;;;16.60;9.88;;;18.30;68.10;;;;;;5072269;28;20043;-65
2021/09/28 00:56:08;;;;;;;17.38;11.68;;;18.20;68.00;;;;;;5053821;28;20029;-65
2021/09/28 00:58:35;;;;;;;17.67;12.23;;;18.20;68.20;;;;;;5052230;28;20032;-64
2021/09/28 01:01:03;;;;;;;18.02;13.30;;;18.20;68.80;;;;;;5051855;28;20021;-65
2021/09/28 01:03:34;;;;;;;23.27;14.55;;;18.20;69.30;;;;;;5051704;28;20056;-64
2021/09/28 01:06:01;;;;;;;14.43;11.27;;;18.20;69.50;;;;;;5050567;28;20033;-65
2021/09/28 01:08:27;;;;;;;16.40;11.57;;;18.20;69.20;;;;;;5051738;28;20075;-65
2021/09/28 01:10:53;;;;;;;14.60;11.13;;;18.20;69.00;;;;;;5051493;28;20049;-64
2021/09/28 01:13:24;;;;;;;19.08;13.23;;;18.20;68.90;;;;;;5051444;28;20033;-65
2021/09/28 01:15:58;;;;;;;17.95;13.65;;;18.20;69.10;;;;;;5051261;28;20048;-65
2021/09/28 01:18:29;;;;;;;17.35;12.65;;;18.20;69.40;;;;;;5051482;28;20021;-64
2021/09/28 01:20:55;;;;;;;16.77;12.20;;;18.20;69.40;;;;;;5051377;28;20060;-65
2021/09/28 01:23:21;;;;;;;17.30;11.25;;;18.20;69.40;;;;;;5050587;28;20083;-64
2021/09/28 01:25:47;;;;;;;16.15;11.45;;;18.20;69.40;;;;;;5051542;28;20429;-64
2021/09/28 01:28:14;;;;;;;17.00;12.40;;;18.10;69.10;;;;;;5051387;28;20029;-63
2021/09/28 01:30:40;;;;;;;16.13;10.85;;;18.10;69.00;;;;;;5051168;28;20044;-66
2021/09/28 01:33:06;;;;;;;13.85;10.30;;;18.10;68.80;;;;;;5051366;28;20029;-64
2021/09/28 01:35:32;;;;;;;18.40;11.93;;;18.10;68.70;;;;;;5054651;28;20028;-65
2021/09/28 01:37:58;;;;;;;12.93;10.15;;;18.10;68.60;;;;;;5071317;28;20056;-65
2021/09/28 01:40:24;;;;;;;18.67;11.35;;;18.10;68.60;;;;;;5065781;28;20435;-65
2021/09/28 01:42:50;;;;;;;15.00;10.85;;;18.10;68.70;;;;;;5051279;28;20470;-67
2021/09/28 01:45:16;;;;;;;18.98;12.98;;;18.00;68.60;;;;;;5051054;28;20116;-63
2021/09/28 01:47:42;;;;;;;14.73;11.30;;;18.00;68.80;;;;;;5051066;28;20096;-65
2021/09/28 01:50:08;;;;;;;18.92;11.98;;;18.00;68.80;;;;;;5051049;28;20017;-66
2021/09/28 01:52:39;;;;;;;16.85;11.90;;;18.00;68.90;;;;;;5051330;28;20434;-65
2021/09/28 01:55:07;;;;;;;15.23;10.02;;;18.00;68.90;;;;;;5051829;28;20029;-65
2021/09/28 01:57:33;;;;;;;14.93;11.95;;;17.90;68.70;;;;;;5051180;28;20033;-65
2021/09/28 02:00:00;;;;;;;15.55;9.93;;;17.90;68.80;;;;;;5062392;28;20081;-66
2021/09/28 02:02:26;;;;;;;13.82;10.57;;;17.90;68.70;;;;;;5050719;28;20522;-65
2021/09/28 02:04:52;;;;;;;20.75;12.85;;;17.80;68.70;;;;;;5051115;28;20044;-65
2021/09/28 02:07:18;;;;;;;22.00;14.32;;;17.80;68.90;;;;;;5051049;28;20033;-65
2021/09/28 02:09:44;;;;;;;18.50;13.70;;;17.80;69.40;;;;;;5051237;28;20139;-66
2021/09/28 02:12:09;;;;;;;15.60;12.35;;;17.70;69.70;;;;;;5050723;28;20041;-65
2021/09/28 02:14:35;;;;;;;12.15;10.25;;;17.70;69.80;;;;;;5050844;28;20033;-65
2021/09/28 02:17:01;;;;;;;15.98;12.05;;;17.70;69.70;;;;;;5069346;28;20039;-65
2021/09/28 02:19:27;;;;;;;22.35;11.82;;;17.70;69.80;;;;;;5071307;28;20103;-65
2021/09/28 02:21:52;;;;;;;21.85;11.60;;;17.70;69.80;;;;;;5070621;28;20473;-65
2021/09/28 02:24:18;;;;;;;15.95;11.02;;;17.70;69.80;;;;;;5051579;28;20040;-65
2021/09/28 02:26:45;;;;;;;15.60;10.23;;;17.70;69.80;;;;;;5050787;28;20017;-65
2021/09/28 02:29:11;;;;;;;17.40;10.98;;;17.70;69.70;;;;;;5050664;28;20029;-65
2021/09/28 02:31:38;;;;;;;16.52;10.38;;;17.60;69.70;;;;;;5050791;28;20057;-65
2021/09/28 02:34:06;;;;;;;12.52;10.60;;;17.60;69.70;;;;;;5052432;28;20021;-65
2021/09/28 02:36:33;;;;;;;19.13;10.57;;;17.60;69.60;;;;;;5054545;28;20025;-64
2021/09/28 02:38:59;;;;;;;15.30;10.82;;;17.60;69.60;;;;;;5054701;28;20538;-66
2021/09/28 02:41:25;;;;;;;13.65;9.95;;;17.60;69.60;;;;;;5054853;28;20026;-64
2021/09/28 02:43:50;;;;;;;12.70;9.27;;;17.60;69.60;;;;;;5054690;28;20029;-66
2021/09/28 02:46:16;;;;;;;14.45;10.52;;;17.60;69.50;;;;;;5054966;28;20029;-65
2021/09/28 02:48:42;;;;;;;16.30;12.50;;;17.60;69.70;;;;;;5054108;28;20021;-65
2021/09/28 02:51:08;;;;;;;14.25;10.88;;;17.50;69.70;;;;;;5054402;28;20041;-65
2021/09/28 02:53:34;;;;;;;16.13;11.32;;;17.50;69.80;;;;;;5054735;28;20024;-65
2021/09/28 02:55:59;;;;;;;16.90;11.10;;;17.50;69.90;;;;;;5054203;28;20104;-65
2021/09/28 02:58:25;;;;;;;14.75;11.23;;;17.50;69.90;;;;;;5054968;28;20025;-66
2021/09/28 03:00:51;;;;;;;19.95;12.18;;;17.50;70.00;;;;;;5066681;28;20036;-65
2021/09/28 03:03:17;;;;;;;23.42;12.23;;;17.50;70.20;;;;;;5074481;28;20647;-65
2021/09/28 03:05:43;;;;;;;20.13;12.10;;;17.50;70.40;;;;;;5074744;28;20339;-65
2021/09/28 03:08:09;;;;;;;21.08;11.30;;;17.50;71.20;;;;;;5074285;28;20035;-66
2021/09/28 03:10:40;;;;;;;17.27;10.48;;;17.50;70.30;;;;;;5074476;28;20032;-65
2021/09/28 03:13:06;;;;;;;14.30;10.82;;;17.50;70.30;;;;;;5063089;28;20044;-65
2021/09/28 03:15:32;;;;;;;19.48;10.00;;;17.60;70.20;;;;;;5054648;28;20375;-65
2021/09/28 03:17:58;;;;;;;18.63;11.10;;;17.60;70.10;;;;;;5054200;28;20035;-64
2021/09/28 03:20:24;;;;;;;13.20;9.60;;;17.60;69.90;;;;;;5054191;28;20029;-64
2021/09/28 03:22:49;;;;;;;16.13;10.15;;;17.60;69.80;;;;;;5053992;28;20025;-65
2021/09/28 03:25:15;;;;;;;14.88;11.05;;;17.60;69.80;;;;;;5053615;28;20041;-65
2021/09/28 03:27:41;;;;;;;30.70;12.38;;;17.60;69.80;;;;;;5053929;28;20074;-66
2021/09/28 03:30:08;;;;;;;21.27;11.15;;;17.60;69.90;;;;;;5053630;28;20083;-65
2021/09/28 03:32:36;;;;;;;21.92;11.35;;;17.50;69.90;;;;;;5053773;28;20025;-65
2021/09/28 03:35:05;;;;;;;14.75;11.15;;;17.50;69.90;;;;;;5053478;28;20470;-65
2021/09/28 03:37:31;;;;;;;12.15;9.60;;;17.50;69.90;;;;;;5053534;28;20033;-65
2021/09/28 03:39:56;;;;;;;21.15;11.55;;;17.50;69.90;;;;;;5053669;28;20108;-65
2021/09/28 03:42:22;;;;;;;15.98;10.85;;;17.50;69.90;;;;;;5053601;28;20029;-66
2021/09/28 03:44:48;;;;;;;15.52;11.00;;;17.60;69.90;;;;;;5052574;28;20376;-65
2021/09/28 03:47:14;;;;;;;15.15;10.50;;;17.60;69.90;;;;;;5059751;28;20489;-64
2021/09/28 03:49:39;;;;;;;15.73;11.38;;;17.60;70.00;;;;;;5071796;28;20036;-65
2021/09/28 03:52:06;;;;;;;15.13;10.88;;;17.60;70.10;;;;;;5073384;28;20036;-64
2021/09/28 03:54:31;;;;;;;17.90;10.68;;;17.60;70.20;;;;;;5072179;28;20128;-65
2021/09/28 03:56:57;;;;;;;16.38;11.52;;;17.60;70.20;;;;;;5058767;28;20096;-64
2021/09/28 03:59:23;;;;;;;16.88;11.60;;;17.70;70.30;;;;;;5053231;28;20070;-65
2021/09/28 04:01:48;;;;;;;15.50;10.60;;;17.70;70.30;;;;;;5056804;28;20044;-65
2021/09/28 04:04:14;;;;;;;14.55;11.30;;;17.70;70.40;;;;;;5071478;28;20040;-64
2021/09/28 04:06:40;;;;;;;13.93;10.52;;;17.70;70.70;;;;;;5073130;28;20032;-65
2021/09/28 04:09:06;;;;;;;15.02;11.73;;;17.70;70.30;;;;;;5070981;28;20501;-65
2021/09/28 04:11:31;;;;;;;23.77;12.05;;;17.80;70.30;;;;;;5064552;28;20031;-65
2021/09/28 04:13:57;;;;;;;18.65;12.15;;;17.80;70.20;;;;;;5052556;28;20032;-65
2021/09/28 04:16:24;;;;;;;18.48;11.40;;;17.80;70.10;;;;;;5052743;28;20032;-65
2021/09/28 04:18:50;;;;;;;15.93;10.27;;;17.80;70.10;;;;;;5072931;28;20017;-65
2021/09/28 04:21:16;;;;;;;13.50;10.27;;;17.80;70.10;;;;;;5072928;28;20036;-65
2021/09/28 04:23:42;;;;;;;16.23;10.27;;;17.80;70.00;;;;;;5071981;28;20039;-64
2021/09/28 04:26:08;;;;;;;13.55;10.23;;;17.90;70.00;;;;;;5070996;28;20560;-65
2021/09/28 04:28:35;;;;;;;21.70;10.32;;;17.90;69.90;;;;;;5070984;28;20074;-65
2021/09/28 04:31:01;;;;;;;26.48;10.65;;;17.90;69.80;;;;;;5070874;28;20024;-65
2021/09/28 04:33:26;;;;;;;21.05;11.57;;;18.00;69.80;;;;;;5065048;28;20043;-65
2021/09/28 04:35:52;;;;;;;31.08;14.57;;;18.00;69.70;;;;;;5052623;28;20032;-65
2021/09/28 04:38:18;;;;;;;30.23;13.68;;;18.10;69.60;;;;;;5052411;28;20056;-65
2021/09/28 04:40:43;;;;;;;25.05;13.52;;;18.10;69.60;;;;;;5052720;28;20095;-65
2021/09/28 04:43:09;;;;;;;23.58;12.63;;;18.10;69.60;;;;;;5052744;28;20120;-65
2021/09/28 04:45:35;;;;;;;21.77;11.73;;;18.20;69.40;;;;;;5051241;28;20025;-65
2021/09/28 04:48:01;;;;;;;19.88;12.38;;;18.20;69.30;;;;;;5052493;28;20051;-65
2021/09/28 04:50:27;;;;;;;13.63;10.13;;;18.20;69.20;;;;;;5052430;28;20450;-65
2021/09/28 04:52:52;;;;;;;15.15;10.88;;;18.20;69.20;;;;;;5051847;28;20044;-65
2021/09/28 04:55:18;;;;;;;14.73;10.15;;;18.20;69.10;;;;;;5052167;28;20087;-65
2021/09/28 04:57:44;;;;;;;18.58;10.57;;;18.20;69.00;;;;;;5051913;28;20428;-65
2021/09/28 05:00:10;;;;;;;13.00;9.68;;;18.20;68.90;;;;;;5050860;28;20492;-64
2021/09/28 05:02:37;;;;;;;20.90;9.98;;;18.20;68.80;;;;;;5052003;28;20049;-65
2021/09/28 05:05:04;;;;;;;13.63;9.82;;;18.20;68.80;;;;;;5051114;28;20124;-64
2021/09/28 05:07:30;;;;;;;20.67;9.82;;;18.20;68.80;;;;;;5050481;28;20391;-65
2021/09/28 05:09:55;;;;;;;13.82;8.98;;;18.20;68.90;;;;;;5052439;28;20029;-64
2021/09/28 05:12:21;;;;;;;19.98;9.55;;;18.20;68.80;;;;;;5052013;28;20033;-64
2021/09/28 05:14:47;;;;;;;14.02;10.73;;;18.20;68.90;;;;;;5051840;28;20120;-65
2021/09/28 05:17:13;;;;;;;15.70;11.18;;;18.20;68.90;;;;;;5051733;28;20021;-64
2021/09/28 05:19:39;;;;;;;14.18;10.25;;;18.20;69.10;;;;;;5051758;28;20020;-63
2021/09/28 05:22:04;;;;;;;25.30;11.00;;;18.20;69.10;;;;;;5051436;28;20016;-64
2021/09/28 05:24:30;;;;;;;13.82;9.57;;;18.30;69.20;;;;;;5051581;28;20029;-65
2021/09/28 05:26:56;;;;;;;14.77;9.82;;;18.30;69.10;;;;;;5051457;28;20471;-65
2021/09/28 05:29:22;;;;;;;14.68;10.55;;;18.30;69.10;;;;;;5051579;28;20063;-65
2021/09/28 05:31:47;;;;;;;15.35;11.00;;;18.40;69.00;;;;;;5051647;28;20040;-66
2021/09/28 05:34:15;;;;;;;14.25;10.30;;;18.40;69.00;;;;;;5063750;28;20098;-66
2021/09/28 05:36:41;;;;;;;12.82;9.65;;;18.40;68.90;;;;;;5059747;28;20036;-65
2021/09/28 05:39:07;;;;;;;16.33;10.50;;;18.40;69.70;;;;;;5061728;28;20496;-66
2021/09/28 05:41:33;;;;;;;16.48;10.88;;;18.50;69.00;;;;;;5050937;28;20096;-65
2021/09/28 05:43:59;;;;;;;15.55;11.18;;;18.50;69.10;;;;;;5050965;28;20428;-66
2021/09/28 05:46:24;;;;;;;11.98;9.98;;;18.60;69.20;;;;;;5051376;28;20100;-65
2021/09/28 05:48:50;;;;;;;16.35;12.40;;;18.60;69.20;;;;;;5051086;28;20559;-65
2021/09/28 05:51:18;;;;;;;18.58;12.13;;;18.70;69.30;;;;;;5050536;28;20055;-66
2021/09/28 05:53:45;;;;;;;17.67;12.00;;;18.70;69.20;;;;;;5050927;28;20136;-65
2021/09/28 05:56:15;;;;;;;13.90;10.98;;;18.80;69.20;;;;;;5050928;28;20017;-65
2021/09/28 05:58:41;;;;;;;13.27;9.65;;;18.80;69.10;;;;;;5054765;28;20036;-66
2021/09/28 06:01:07;;;;;;;14.25;10.15;;;18.90;69.90;;;;;;5050877;28;20466;-65
2021/09/28 06:03:33;;;;;;;15.55;11.05;;;19.00;69.00;;;;;;5054538;28;20094;-65
2021/09/28 06:06:00;;;;;;;15.85;9.95;;;19.10;69.20;;;;;;5051164;28;20489;-66
2021/09/28 06:08:26;;;;;;;13.20;10.15;;;19.20;68.80;;;;;;5050261;28;20714;-65
2021/09/28 06:10:51;;;;;;;15.15;10.57;;;19.30;68.70;;;;;;5050615;28;20107;-65
2021/09/28 06:13:17;;;;;;;13.65;9.85;;;19.40;69.20;;;;;;5052938;28;20033;-66
2021/09/28 06:15:43;;;;;;;14.85;10.43;;;19.50;68.10;;;;;;5050643;28;20060;-66
2021/09/28 06:18:09;;;;;;;20.95;11.52;;;19.50;67.70;;;;;;5053313;28;20433;-65
2021/09/28 06:20:35;;;;;;;18.73;11.57;;;19.60;67.20;;;;;;5064875;28;20017;-66
2021/09/28 06:23:00;;;;;;;20.52;12.52;;;19.60;66.90;;;;;;5053654;28;20390;-66
2021/09/28 06:25:26;;;;;;;19.35;13.15;;;19.70;66.60;;;;;;5051038;28;20025;-66
2021/09/28 06:27:52;;;;;;;17.00;11.23;;;19.70;66.60;;;;;;5050928;28;20036;-66
2021/09/28 06:30:18;;;;;;;16.85;11.65;;;19.80;66.50;;;;;;5051049;28;20025;-66
2021/09/28 06:32:44;;;;;;;15.02;11.23;;;19.80;67.20;;;;;;5061391;28;20025;-65
2021/09/28 06:35:11;;;;;;;13.35;10.02;;;19.80;66.30;;;;;;5060885;28;20037;-66
2021/09/28 06:37:37;;;;;;;15.73;11.05;;;19.80;66.30;;;;;;5051310;28;20502;-65
2021/09/28 06:40:03;;;;;;;13.25;10.77;;;19.90;66.10;;;;;;5051474;28;20048;-65
2021/09/28 06:42:29;;;;;;;12.68;9.80;;;19.90;65.90;;;;;;5051398;28;20060;-66
2021/09/28 06:44:54;;;;;;;17.58;11.43;;;19.90;65.80;;;;;;5053661;28;20057;-66
2021/09/28 06:47:20;;;;;;;21.50;12.95;;;19.90;65.70;;;;;;5069757;28;20032;-65
2021/09/28 06:49:46;;;;;;;17.55;12.07;;;19.90;65.50;;;;;;5070911;28;20107;-65
2021/09/28 06:52:12;;;;;;;19.98;11.63;;;19.90;65.60;;;;;;5062517;28;20032;-66
2021/09/28 06:54:38;;;;;;;16.73;10.68;;;19.80;65.50;;;;;;5050876;28;20056;-65
2021/09/28 06:57:04;;;;;;;16.60;9.63;;;19.80;66.20;;;;;;5063335;28;20028;-66
2021/09/28 06:59:30;;;;;;;14.13;11.30;;;19.80;65.50;;;;;;5050783;28;20014;-65
2021/09/28 07:01:56;;;;;;;17.88;12.27;;;19.80;65.50;;;;;;5051010;28;20106;-66
2021/09/28 07:04:21;;;;;;;14.30;10.55;;;19.70;65.50;;;;;;5051329;28;20040;-66
2021/09/28 07:06:47;;;;;;;18.77;11.70;;;19.70;65.60;;;;;;5051312;28;20390;-65
2021/09/28 07:09:13;;;;;;;20.40;11.65;;;19.70;65.70;;;;;;5051240;28;20398;-66
2021/09/28 07:11:39;;;;;;;16.65;11.23;;;19.60;65.70;;;;;;5051432;28;20063;-65
2021/09/28 07:14:05;;;;;;;38.30;13.43;;;19.60;65.90;;;;;;5060710;28;20424;-66
2021/09/28 07:16:31;;;;;;;27.70;14.52;;;19.60;66.00;;;;;;5063486;28;20043;-64
2021/09/28 07:18:56;;;;;;;34.22;13.77;;;19.50;66.10;;;;;;5050832;28;20479;-65
2021/09/28 07:21:22;;;;;;;29.00;13.48;;;19.50;66.30;;;;;;5056067;28;20025;-66
2021/09/28 07:23:48;;;;;;;28.05;12.55;;;19.50;66.30;;;;;;5054273;28;20122;-65
2021/09/28 07:26:14;;;;;;;27.48;12.52;;;19.50;66.40;;;;;;5054483;28;20494;-66
2021/09/28 07:28:40;;;;;;;25.40;11.85;;;19.50;66.50;;;;;;5054391;28;20024;-66
2021/09/28 07:31:08;;;;;;;21.08;11.82;;;19.50;66.50;;;;;;5058114;28;20031;-66
2021/09/28 07:33:34;;;;;;;28.95;11.00;;;19.50;66.60;;;;;;5056409;28;20104;-65
2021/09/28 07:36:02;;;;;;;20.35;10.98;;;19.50;66.60;;;;;;5056499;28;20159;-66
2021/09/28 07:38:28;;;;;;;25.63;11.27;;;19.50;66.80;;;;;;5062438;28;20100;-66
2021/09/28 07:40:54;;;;;;;18.20;11.02;;;19.50;66.90;;;;;;5062909;28;20023;-67
2021/09/28 07:43:20;;;;;;;18.17;11.23;;;19.50;67.10;;;;;;5070239;28;20025;-65
2021/09/28 07:45:46;;;;;;;18.17;11.77;;;19.60;67.30;;;;;;5063214;28;20028;-66
2021/09/28 07:48:12;;;;;;;21.35;11.60;;;19.60;67.40;;;;;;5062776;28;20531;-67
2021/09/28 07:50:38;;;;;;;15.40;9.52;;;19.70;67.40;;;;;;5074314;28;20044;-67
2021/09/28 07:53:07;;;;;;;12.90;9.95;;;19.80;67.40;;;;;;5059175;28;20025;-65
2021/09/28 07:55:34;;;;;;;11.60;9.45;;;19.90;67.10;;;;;;5059186;28;20012;-66
2021/09/28 07:58:01;;;;;;;12.93;10.35;;;20.00;66.80;;;;;;5072877;28;20025;-66
2021/09/28 08:00:27;;;;;;;13.35;10.13;;;20.00;66.50;;;;;;5074106;28;20013;-66
2021/09/28 08:02:53;;;;;;;13.93;10.50;;;20.10;66.90;;;;;;5073826;28;20036;-66
2021/09/28 08:05:19;;;;;;;14.32;9.90;;;20.20;66.10;;;;;;5058255;28;20025;-66
2021/09/28 08:07:45;;;;;;;18.00;10.60;;;20.20;66.10;;;;;;5054166;28;20021;-66
2021/09/28 08:10:13;;;;;;;13.68;10.30;;;20.30;65.80;;;;;;5059311;28;20485;-66
2021/09/28 08:12:39;;;;;;;13.00;10.60;;;20.40;66.00;;;;;;5063114;28;20477;-67
2021/09/28 08:15:06;;;;;;;22.15;10.05;;;20.40;65.70;;;;;;5072387;28;20036;-67
2021/09/28 08:17:33;;;;;;;14.00;11.15;;;20.60;65.90;;;;;;5073654;28;20019;-66
2021/09/28 08:19:58;;;;;;;14.82;9.82;;;20.60;65.50;;;;;;5073677;28;20024;-66
2021/09/28 08:22:25;;;;;;;13.20;9.93;;;20.70;65.50;;;;;;5073899;28;20026;-66
2021/09/28 08:24:54;;;;;;;16.92;10.45;;;20.80;65.50;;;;;;5071818;28;20104;-66
2021/09/28 08:30:07;;;;;;;15.93;10.40;;;21.00;65.00;;;;;;5069646;28;20044;-66
2021/09/28 08:32:34;;;;;;;14.75;10.43;;;21.10;64.90;;;;;;5053059;28;20025;-66
2021/09/28 08:35:00;;;;;;;17.60;10.75;;;21.10;65.50;;;;;;5071005;28;20115;-66
2021/09/28 08:37:26;;;;;;;18.45;13.80;;;21.20;64.60;;;;;;5068258;28;20572;-65
2021/09/28 08:39:56;;;;;;;19.95;13.05;;;21.30;64.20;;;;;;5057473;28;20025;-67
2021/09/28 08:42:23;;;;;;;22.58;16.02;;;21.40;64.20;;;;;;5054947;28;20458;-67
2021/09/28 08:44:49;;;;;;;30.80;16.85;;;21.40;63.70;;;;;;5061969;28;20031;-66
2021/09/28 08:47:15;;;;;;;27.98;17.95;;;21.40;63.30;;;;;;5055218;28;20033;-66
2021/09/28 08:49:41;;;;;;;22.83;14.57;;;21.50;62.90;;;;;;5073156;28;20024;-67
2021/09/28 08:52:10;;;;;;;30.52;16.05;;;21.60;63.20;;;;;;5073215;28;20020;-66
2021/09/28 08:54:35;;;;;;;23.35;15.85;;;21.70;63.20;;;;;;5054184;28;20456;-66
2021/09/28 08:57:02;;;;;;;22.58;16.25;;;21.70;62.70;;;;;;5057953;28;20108;-66
2021/09/28 08:59:49;;;;;;;20.50;14.25;;;21.80;63.50;;;;;;5073109;28;20024;-66
2021/09/28 09:02:16;;;;;;;24.15;15.13;;;21.90;62.80;;;;;;5062951;28;20167;-66
2021/09/28 09:04:44;;;;;;;21.73;14.30;;;22.00;62.50;;;;;;5052933;28;20098;-65
2021/09/28 09:07:25;;;;;;;23.42;16.45;;;22.10;62.60;;;;;;5061463;28;20466;-66
2021/09/28 09:09:51;;;;;;;22.67;16.23;;;22.10;62.10;;;;;;5051906;28;20474;-67
2021/09/28 09:12:35;;;;;;;25.17;17.30;;;22.20;61.90;;;;;;5054776;28;20036;-65
2021/09/28 09:15:20;;;;;;;22.65;16.50;;;22.30;61.90;;;;;;5071499;28;20032;-66
2021/09/28 09:17:47;;;;;;;21.35;14.75;;;22.40;61.60;;;;;;5070858;28;20016;-66
2021/09/28 09:20:34;;;;;;;26.77;17.92;;;22.50;61.60;;;;;;5071706;28;20040;-65
2021/09/28 09:23:15;;;;;;;23.42;17.33;;;22.50;60.90;;;;;;5051735;28;20059;-65
2021/09/28 09:25:42;;;;;;;24.92;15.95;;;22.60;60.60;;;;;;5051713;28;20441;-65
2021/09/28 09:28:30;;;;;;;19.08;14.43;;;22.70;60.70;;;;;;5051721;28;20104;-66
2021/09/28 09:31:12;;;;;;;20.50;14.85;;;22.80;60.70;;;;;;5051666;28;20060;-65
2021/09/28 09:33:39;;;;;;;23.25;15.98;;;22.80;60.30;;;;;;5056834;28;20478;-65
2021/09/28 09:36:06;;;;;;;22.63;15.55;;;22.90;60.00;;;;;;5050964;28;20025;-66
2021/09/28 09:38:40;;;;;;;18.85;14.45;;;23.00;59.90;;;;;;5059031;28;20025;-65
2021/09/28 09:41:06;;;;;;;19.20;14.68;;;23.00;59.70;;;;;;5052556;28;20033;-65
2021/09/28 09:43:34;;;;;;;21.20;15.20;;;23.10;59.60;;;;;;5051401;28;20071;-66
2021/09/28 09:46:37;;;;;;;23.58;15.25;;;23.10;59.40;;;;;;5052342;28;20029;-65
2021/09/28 09:49:06;;;;;;;23.45;16.92;;;23.20;59.50;;;;;;5054620;28;20437;-65
2021/09/28 09:51:46;;;;;;;25.60;16.13;;;23.20;58.50;;;;;;5072123;28;20397;-65
2021/09/28 09:54:12;;;;;;;19.65;13.85;;;23.30;58.50;;;;;;5072198;28;20115;-65
2021/09/28 09:56:52;;;;;;;17.15;13.20;;;23.30;58.80;;;;;;5072222;28;20032;-65
2021/09/28 09:59:23;;;;;;;21.77;14.90;;;23.30;59.00;;;;;;5072042;28;20021;-66
2021/09/28 10:01:50;;;;;;;20.90;13.73;;;23.40;58.80;;;;;;5071956;28;20033;-66
2021/09/28 10:04:21;;;;;;;24.33;15.27;;;23.50;58.80;;;;;;5055033;28;20086;-65
2021/09/28 10:06:48;;;;;;;21.80;14.93;;;23.60;58.50;;;;;;5052103;28;20028;-66
2021/09/28 10:09:25;;;;;;;21.27;16.77;;;23.60;58.20;;;;;;5051806;28;20238;-66
2021/09/28 10:12:00;;;;;;;21.55;16.33;;;23.70;58.00;;;;;;5055917;28;20021;-65
2021/09/28 10:14:35;;;;;;;22.30;16.83;;;23.70;57.90;;;;;;5071921;28;20029;-67
2021/09/28 10:17:22;;;;;;;24.02;16.17;;;23.80;57.90;;;;;;5071886;28;20051;-67
2021/09/28 10:19:52;;;;;;;20.52;16.00;;;23.80;58.00;;;;;;5071697;28;20451;-67
2021/09/28 10:22:48;;;;;;;23.75;16.75;;;23.90;57.60;;;;;;5071884;28;20032;-67
2021/09/28 10:25:20;;;;;;;22.05;14.63;;;23.90;57.80;;;;;;5071807;28;20031;-67
2021/09/28 10:27:50;;;;;;;18.05;13.90;;;24.00;57.50;;;;;;5070460;28;20035;-66
2021/09/28 10:30:34;;;;;;;20.15;15.45;;;24.10;57.30;;;;;;5071995;28;20489;-67
2021/09/28 10:33:00;;;;;;;21.48;16.70;;;24.10;57.00;;;;;;5071351;28;20060;-66
2021/09/28 10:35:27;;;;;;;29.15;16.15;;;24.30;56.60;;;;;;5070382;28;20025;-66
2021/09/28 10:38:07;;;;;;;22.27;16.58;;;24.30;56.60;;;;;;5071580;28;20028;-67
2021/09/28 10:40:33;;;;;;;24.55;17.25;;;24.30;56.50;;;;;;5066469;28;20027;-67
2021/09/28 10:43:03;;;;;;;26.63;16.83;;;24.30;56.30;;;;;;5063568;28;20099;-67
2021/09/28 10:45:29;;;;;;;24.42;16.33;;;24.30;56.20;;;;;;5071246;28;20020;-67
2021/09/28 10:48:10;;;;;;;27.55;17.45;;;24.40;56.30;;;;;;5070398;28;20434;-66
2021/09/28 10:50:43;;;;;;;32.95;18.45;;;24.40;56.00;;;;;;5067898;28;20020;-66
2021/09/28 10:53:29;;;;;;;23.15;15.63;;;24.40;55.60;;;;;;5070389;28;20394;-67
2021/09/28 10:55:57;;;;;;;24.95;17.42;;;24.50;56.30;;;;;;5074383;28;20120;-66
2021/09/28 10:58:24;;;;;;;22.95;15.93;;;24.50;55.70;;;;;;5055516;28;20021;-67
2021/09/28 11:00:53;;;;;;;23.58;15.38;;;24.50;55.60;;;;;;5055288;28;20028;-66
2021/09/28 11:03:43;;;;;;;23.38;15.32;;;24.60;55.80;;;;;;5055080;28;20057;-66
2021/09/28 11:06:11;;;;;;;26.25;16.98;;;24.60;56.00;;;;;;5054685;28;20056;-66
2021/09/28 11:08:37;;;;;;;31.02;16.00;;;24.70;55.40;;;;;;5055197;28;20027;-67
2021/09/28 11:11:06;;;;;;;23.25;16.00;;;24.70;55.50;;;;;;5055191;28;20029;-66
2021/09/28 11:13:34;;;;;;;23.83;16.60;;;24.80;55.40;;;;;;5055182;28;20037;-67
2021/09/28 11:16:04;;;;;;;32.53;19.13;;;24.90;55.10;;;;;;5055334;28;20020;-67
2021/09/28 11:18:31;;;;;;;33.75;20.23;;;24.90;54.80;;;;;;5055298;28;20021;-66
2021/09/28 11:21:12;;;;;;;28.77;18.92;;;24.90;54.10;;;;;;5055005;28;20048;-66
2021/09/28 11:23:39;;;;;;;39.83;19.45;;;24.90;54.10;;;;;;5073844;28;20374;-66
2021/09/28 11:26:06;;;;;;;25.63;18.52;;;24.90;54.00;;;;;;5075126;28;20055;-65
2021/09/28 11:28:32;;;;;;;30.02;21.17;;;24.90;53.90;;;;;;5075065;28;20382;-66
2021/09/28 11:31:07;;;;;;;33.88;21.23;;;24.90;53.90;;;;;;5074958;28;20111;-66
2021/09/28 11:33:39;;;;;;;33.63;21.77;;;24.90;54.20;;;;;;5058047;28;20024;-65
2021/09/28 11:36:07;;;;;;;30.88;19.90;;;25.00;54.20;;;;;;5057865;28;20561;-66
2021/09/28 11:38:38;;;;;;;36.80;21.08;;;25.00;53.70;;;;;;5054604;28;20025;-66
2021/09/28 11:41:11;;;;;;;28.85;20.50;;;25.10;53.70;;;;;;5054566;28;20021;-67
2021/09/28 11:43:38;;;;;;;34.60;21.85;;;25.10;53.40;;;;;;5054645;28;20558;-66
2021/09/28 11:46:07;;;;;;;30.48;20.52;;;25.20;52.40;;;;;;5054586;28;20421;-65
2021/09/28 11:48:38;;;;;;;32.17;21.20;;;25.20;52.10;;;;;;5054414;28;20032;-66
2021/09/28 11:51:26;;;;;;;29.30;20.42;;;25.10;51.80;;;;;;5054380;28;20028;-66
2021/09/28 11:53:57;;;;;;;25.08;16.77;;;25.10;51.90;;;;;;5064450;28;20389;-66
2021/09/28 11:56:29;;;;;;;26.73;16.15;;;25.10;51.40;;;;;;5074356;28;20028;-66
2021/09/28 11:58:55;;;;;;;23.08;16.42;;;25.00;51.30;;;;;;5074426;28;20048;-65
2021/09/28 12:01:23;;;;;;;19.33;14.20;;;25.00;50.90;;;;;;5057859;28;20028;-66
2021/09/28 12:04:14;;;;;;;21.63;14.90;;;25.00;51.20;;;;;;5054085;28;20502;-65
2021/09/28 12:09:34;;;;;;;22.17;12.48;;;25.00;51.70;;;;;;5054514;28;20040;-65
2021/09/28 12:12:07;;;;;;;17.85;13.15;;;25.00;51.20;;;;;;5054008;28;20032;-67
2021/09/28 12:14:41;;;;;;;16.02;11.63;;;25.00;51.40;;;;;;5053801;28;20466;-67
2021/09/28 12:17:32;;;;;;;20.15;12.13;;;25.00;50.90;;;;;;5054101;28;20101;-67
2021/09/28 12:20:19;;;;;;;15.90;11.70;;;25.10;51.10;;;;;;5053755;28;20100;-67
2021/09/28 12:22:47;;;;;;;15.45;11.35;;;25.20;51.00;;;;;;5053863;28;20021;-67
2021/09/28 12:25:32;;;;;;;15.75;11.43;;;25.20;51.20;;;;;;5053798;28;20078;-67
2021/09/28 12:27:57;;;;;;;13.82;11.18;;;25.20;51.00;;;;;;5053871;28;20028;-67
2021/09/28 12:30:27;;;;;;;11.80;9.30;;;25.30;51.00;;;;;;5053640;28;20024;-66
2021/09/28 12:32:53;;;;;;;14.77;10.90;;;25.40;51.10;;;;;;5061026;28;20025;-67
2021/09/28 12:35:26;;;;;;;13.77;10.25;;;25.50;50.10;;;;;;5073591;28;20020;-66
2021/09/28 12:38:01;;;;;;;14.90;10.10;;;25.40;49.90;;;;;;5073583;28;20051;-67
2021/09/28 12:40:30;;;;;;;12.95;9.65;;;25.40;49.80;;;;;;5073692;28;20154;-67